sensor_id;sensor_type;location;lat;lon;timestamp;pressure;altitude;pressure_sealevel;temperature;humidity
49194;BME280;35029;50.804;12.866;2023-02-19T00:01:40;97682.53;;;7.63;100.00
49194;BME280;35029;50.804;12.866;2023-02-19T00:04:15;97680.28;;;7.59;100.00
49194;BME280;35029;50.804;12.866;2023-02-19T00:06:42;97675.06;;;7.51;100.00
49194;BME280;35029;50.804;12.866;2023-02-19T00:09:09;97685.69;;;7.58;100.00
49194;BME280;35029;50.804;12.866;2023-02-19T00:11:36;97675.69;;;7.53;100.00
49194;BME280;35029;50.804;12.866;2023-02-19T00:14:03;97677.44;;;7.61;100.00
49194;BME280;35029;50.804;12.866;2023-02-19T00:16:31;97688.63;;;7.63;100.00
49194;BME280;35029;50.804;12.866;2023-02-19T00:18:58;97683.53;;;7.61;100.00
49194;BME280;35029;50.804;12.866;2023-02-19T00:21:24;97679.91;;;7.63;100.00
49194;BME280;35029;50.804;12.866;2023-02-19T00:23:52;97662.78;;;7.58;100.00
49194;BME280;35029;50.804;12.866;2023-02-19T00:26:19;97662.78;;;7.58;100.00
49194;BME280;35029;50.804;12.866;2023-02-19T00:28:48;97669.34;;;7.63;100.00
49194;BME280;35029;50.804;12.866;2023-02-19T00:31:21;97660.91;;;7.67;100.00
49194;BME280;35029;50.804;12.866;2023-02-19T00:33:49;97657.56;;;7.73;100.00
49194;BME280;35029;50.804;12.866;2023-02-19T00:36:15;97648.69;;;7.66;100.00
49194;BME280;35029;50.804;12.866;2023-02-19T00:38:42;97638.63;;;7.70;100.00
49194;BME280;35029;50.804;12.866;2023-02-19T00:41:08;97652.66;;;7.70;100.00
49194;BME280;35029;50.804;12.866;2023-02-19T00:43:57;97641.63;;;7.67;100.00
49194;BME280;35029;50.804;12.866;2023-02-19T00:46:29;97636.72;;;7.64;100.00
49194;BME280;35029;50.804;12.866;2023-02-19T00:48:56;97641.06;;;7.71;100.00
49194;BME280;35029;50.804;12.866;2023-02-19T00:51:25;97637.63;;;7.71;100.00
49194;BME280;35029;50.804;12.866;2023-02-19T00:53:51;97637.16;;;7.67;100.00
49194;BME280;35029;50.804;12.866;2023-02-19T00:56:17;97617.66;;;7.53;100.00
49194;BME280;35029;50.804;12.866;2023-02-19T00:58:43;97619.75;;;7.58;100.00
49194;BME280;35029;50.804;12.866;2023-02-19T01:01:10;97634.19;;;7.70;100.00
49194;BME280;35029;50.804;12.866;2023-02-19T01:03:36;97631.25;;;7.65;100.00
49194;BME280;35029;50.804;12.866;2023-02-19T01:06:04;97624.44;;;7.71;100.00
49194;BME280;35029;50.804;12.866;2023-02-19T01:08:30;97600.66;;;7.56;100.00
49194;BME280;35029;50.804;12.866;2023-02-19T01:10:59;97614.75;;;7.48;100.00
49194;BME280;35029;50.804;12.866;2023-02-19T01:13:26;97627.63;;;7.43;100.00
49194;BME280;35029;50.804;12.866;2023-02-19T01:15:53;97599.06;;;7.32;100.00
49194;BME280;35029;50.804;12.866;2023-02-19T01:18:19;97586.41;;;7.27;100.00
49194;BME280;35029;50.804;12.866;2023-02-19T01:20:45;97570.78;;;7.25;100.00
49194;BME280;35029;50.804;12.866;2023-02-19T01:23:12;97579.44;;;7.34;100.00
49194;BME280;35029;50.804;12.866;2023-02-19T01:25:39;97576.97;;;7.33;100.00
49194;BME280;35029;50.804;12.866;2023-02-19T01:28:05;97562.88;;;7.25;100.00
49194;BME280;35029;50.804;12.866;2023-02-19T01:30:36;97559.22;;;7.26;100.00
49194;BME280;35029;50.804;12.866;2023-02-19T01:33:06;97550.75;;;7.16;100.00
49194;BME280;35029;50.804;12.866;2023-02-19T01:35:33;97551.38;;;7.18;100.00
49194;BME280;35029;50.804;12.866;2023-02-19T01:37:59;97539.22;;;7.17;100.00
49194;BME280;35029;50.804;12.866;2023-02-19T01:40:25;97531.94;;;7.19;100.00
49194;BME280;35029;50.804;12.866;2023-02-19T01:42:51;97517.66;;;7.14;100.00
49194;BME280;35029;50.804;12.866;2023-02-19T01:45:21;97517.47;;;7.15;100.00
49194;BME280;35029;50.804;12.866;2023-02-19T01:47:53;97517.84;;;7.12;100.00
49194;BME280;35029;50.804;12.866;2023-02-19T01:50:23;97520.69;;;7.25;100.00
49194;BME280;35029;50.804;12.866;2023-02-19T01:52:49;97501.59;;;7.23;100.00
49194;BME280;35029;50.804;12.866;2023-02-19T01:55:16;97504.50;;;7.28;100.00
49194;BME280;35029;50.804;12.866;2023-02-19T01:57:45;97488.13;;;7.18;100.00
49194;BME280;35029;50.804;12.866;2023-02-19T02:00:16;97509.84;;;7.20;100.00
49194;BME280;35029;50.804;12.866;2023-02-19T02:02:46;97504.59;;;7.20;100.00
49194;BME280;35029;50.804;12.866;2023-02-19T02:05:22;97491.78;;;7.17;100.00
49194;BME280;35029;50.804;12.866;2023-02-19T02:07:49;97495.22;;;7.18;100.00
49194;BME280;35029;50.804;12.866;2023-02-19T02:10:33;97482.28;;;7.08;100.00
49194;BME280;35029;50.804;12.866;2023-02-19T02:13:00;97470.75;;;7.09;100.00
49194;BME280;35029;50.804;12.866;2023-02-19T02:15:38;97480.31;;;7.25;100.00
49194;BME280;35029;50.804;12.866;2023-02-19T02:26:21;97466.31;;;7.24;100.00
49194;BME280;35029;50.804;12.866;2023-02-19T02:32:19;97444.56;;;7.22;100.00
49194;BME280;35029;50.804;12.866;2023-02-19T02:34:54;97437.59;;;7.15;100.00
49194;BME280;35029;50.804;12.866;2023-02-19T02:37:24;97450.78;;;7.30;100.00
49194;BME280;35029;50.804;12.866;2023-02-19T02:39:53;97444.56;;;7.22;100.00
49194;BME280;35029;50.804;12.866;2023-02-19T02:42:20;97439.75;;;7.26;100.00
49194;BME280;35029;50.804;12.866;2023-02-19T02:48:37;97418.41;;;7.21;100.00
49194;BME280;35029;50.804;12.866;2023-02-19T02:53:53;97441.59;;;7.25;100.00
49194;BME280;35029;50.804;12.866;2023-02-19T02:56:38;97435.94;;;7.28;100.00
49194;BME280;35029;50.804;12.866;2023-02-19T02:59:09;97406.94;;;7.14;100.00
49194;BME280;35029;50.804;12.866;2023-02-19T03:01:40;97414.94;;;7.20;100.00
49194;BME280;35029;50.804;12.866;2023-02-19T03:08:22;97402.75;;;7.19;100.00
49194;BME280;35029;50.804;12.866;2023-02-19T03:10:29;97406.66;;;7.23;100.00
49194;BME280;35029;50.804;12.866;2023-02-19T03:12:59;97414.84;;;7.28;100.00
49194;BME280;35029;50.804;12.866;2023-02-19T03:15:50;97400.50;;;7.31;100.00
49194;BME280;35029;50.804;12.866;2023-02-19T03:18:39;97382.13;;;7.23;100.00
49194;BME280;35029;50.804;12.866;2023-02-19T03:21:26;97386.84;;;7.27;100.00
49194;BME280;35029;50.804;12.866;2023-02-19T03:23:54;97388.59;;;7.35;100.00
49194;BME280;35029;50.804;12.866;2023-02-19T03:26:40;97392.97;;;7.28;100.00
49194;BME280;35029;50.804;12.866;2023-02-19T03:29:09;97391.31;;;7.27;100.00
49194;BME280;35029;50.804;12.866;2023-02-19T03:31:59;97385.00;;;7.43;100.00
49194;BME280;35029;50.804;12.866;2023-02-19T03:34:36;97375.91;;;7.45;100.00
49194;BME280;35029;50.804;12.866;2023-02-19T03:37:25;97390.63;;;7.55;100.00
49194;BME280;35029;50.804;12.866;2023-02-19T03:39:52;97385.16;;;7.56;100.00
49194;BME280;35029;50.804;12.866;2023-02-19T03:47:24;97374.81;;;7.55;100.00
49194;BME280;35029;50.804;12.866;2023-02-19T03:52:20;97381.53;;;7.57;100.00
49194;BME280;35029;50.804;12.866;2023-02-19T03:55:00;97362.38;;;7.49;100.00
49194;BME280;35029;50.804;12.866;2023-02-19T03:57:46;97349.47;;;7.39;100.00
49194;BME280;35029;50.804;12.866;2023-02-19T04:03:24;97378.41;;;7.69;100.00
49194;BME280;35029;50.804;12.866;2023-02-19T04:05:58;97366.59;;;7.65;100.00
49194;BME280;35029;50.804;12.866;2023-02-19T04:08:26;97375.84;;;7.75;100.00
49194;BME280;35029;50.804;12.866;2023-02-19T04:10:59;97356.25;;;7.63;100.00
49194;BME280;35029;50.804;12.866;2023-02-19T04:13:42;97355.31;;;7.71;100.00
49194;BME280;35029;50.804;12.866;2023-02-19T04:16:13;97353.41;;;7.65;100.00
49194;BME280;35029;50.804;12.866;2023-02-19T04:18:43;97382.16;;;7.74;100.00
49194;BME280;35029;50.804;12.866;2023-02-19T04:21:11;97357.69;;;7.66;100.00
49194;BME280;35029;50.804;12.866;2023-02-19T04:23:41;97361.41;;;7.71;100.00
49194;BME280;35029;50.804;12.866;2023-02-19T04:26:08;97343.72;;;7.50;100.00
49194;BME280;35029;50.804;12.866;2023-02-19T04:28:34;97358.97;;;7.55;100.00
49194;BME280;35029;50.804;12.866;2023-02-19T04:31:01;97368.63;;;7.63;100.00
49194;BME280;35029;50.804;12.866;2023-02-19T04:33:27;97380.53;;;7.58;100.00
49194;BME280;35029;50.804;12.866;2023-02-19T04:35:52;97364.97;;;7.64;100.00
49194;BME280;35029;50.804;12.866;2023-02-19T04:38:18;97362.00;;;7.52;100.00
49194;BME280;35029;50.804;12.866;2023-02-19T04:40:43;97355.28;;;7.49;100.00
49194;BME280;35029;50.804;12.866;2023-02-19T04:43:09;97369.63;;;7.61;100.00
49194;BME280;35029;50.804;12.866;2023-02-19T04:45:38;97360.53;;;7.49;100.00
49194;BME280;35029;50.804;12.866;2023-02-19T04:48:04;97365.09;;;7.55;100.00
49194;BME280;35029;50.804;12.866;2023-02-19T04:50:30;97376.72;;;7.61;100.00
49194;BME280;35029;50.804;12.866;2023-02-19T04:52:57;97380.16;;;7.61;100.00
49194;BME280;35029;50.804;12.866;2023-02-19T04:55:22;97365.44;;;7.52;100.00
49194;BME280;35029;50.804;12.866;2023-02-19T04:57:48;97371.78;;;7.58;100.00
49194;BME280;35029;50.804;12.866;2023-02-19T05:00:13;97355.28;;;7.49;100.00
49194;BME280;35029;50.804;12.866;2023-02-19T05:02:39;97370.81;;;7.59;100.00
49194;BME280;35029;50.804;12.866;2023-02-19T05:05:05;97367.63;;;7.64;100.00
49194;BME280;35029;50.804;12.866;2023-02-19T05:07:30;97350.00;;;7.49;100.00
49194;BME280;35029;50.804;12.866;2023-02-19T05:09:56;97357.63;;;7.59;100.00
49194;BME280;35029;50.804;12.866;2023-02-19T05:12:24;97334.44;;;7.54;100.00
49194;BME280;35029;50.804;12.866;2023-02-19T05:14:50;97356.97;;;7.72;100.00
49194;BME280;35029;50.804;12.866;2023-02-19T05:17:15;97358.75;;;7.71;100.00
49194;BME280;35029;50.804;12.866;2023-02-19T05:19:41;97355.13;;;7.72;100.00
49194;BME280;35029;50.804;12.866;2023-02-19T05:22:06;97354.88;;;7.67;100.00
49194;BME280;35029;50.804;12.866;2023-02-19T05:24:32;97355.78;;;7.74;100.00
49194;BME280;35029;50.804;12.866;2023-02-19T05:26:57;97319.81;;;7.52;100.00
49194;BME280;35029;50.804;12.866;2023-02-19T05:29:23;97361.84;;;7.75;100.00
49194;BME280;35029;50.804;12.866;2023-02-19T05:31:49;97365.09;;;7.77;100.00
49194;BME280;35029;50.804;12.866;2023-02-19T05:34:14;97359.06;;;7.61;100.00
49194;BME280;35029;50.804;12.866;2023-02-19T05:36:40;97364.78;;;7.65;100.00
49194;BME280;35029;50.804;12.866;2023-02-19T05:39:06;97360.72;;;7.63;100.00
49194;BME280;35029;50.804;12.866;2023-02-19T05:41:32;97364.97;;;7.64;100.00
49194;BME280;35029;50.804;12.866;2023-02-19T05:43:58;97375.81;;;7.54;100.00
49194;BME280;35029;50.804;12.866;2023-02-19T05:46:26;97379.47;;;7.53;100.00
49194;BME280;35029;50.804;12.866;2023-02-19T05:48:52;97386.72;;;7.51;100.00
49194;BME280;35029;50.804;12.866;2023-02-19T05:51:21;97394.19;;;7.47;100.00
49194;BME280;35029;50.804;12.866;2023-02-19T05:53:46;97401.56;;;7.52;100.00
49194;BME280;35029;50.804;12.866;2023-02-19T05:56:33;97401.47;;;7.45;100.00
49194;BME280;35029;50.804;12.866;2023-02-19T05:59:10;97400.38;;;7.54;100.00
49194;BME280;35029;50.804;12.866;2023-02-19T06:01:38;97407.56;;;7.45;100.00
49194;BME280;35029;50.804;12.866;2023-02-19T06:04:03;97400.22;;;7.26;100.00
49194;BME280;35029;50.804;12.866;2023-02-19T06:06:29;97420.75;;;7.45;100.00
49194;BME280;35029;50.804;12.866;2023-02-19T06:08:55;97417.50;;;7.43;100.00
49194;BME280;35029;50.804;12.866;2023-02-19T06:11:21;97432.75;;;7.48;100.00
49194;BME280;35029;50.804;12.866;2023-02-19T06:13:47;97422.69;;;7.37;100.00
49194;BME280;35029;50.804;12.866;2023-02-19T06:16:15;97449.13;;;7.43;100.00
49194;BME280;35029;50.804;12.866;2023-02-19T06:18:44;97446.69;;;7.42;100.00
49194;BME280;35029;50.804;12.866;2023-02-19T06:21:10;97454.22;;;7.45;100.00
49194;BME280;35029;50.804;12.866;2023-02-19T06:23:37;97452.31;;;7.39;100.00
49194;BME280;35029;50.804;12.866;2023-02-19T06:26:13;97457.56;;;7.39;100.00
49194;BME280;35029;50.804;12.866;2023-02-19T06:28:40;97480.50;;;7.38;100.00
49194;BME280;35029;50.804;12.866;2023-02-19T06:31:07;97479.03;;;7.36;100.00
49194;BME280;35029;50.804;12.866;2023-02-19T06:33:33;97473.13;;;7.19;100.00
49194;BME280;35029;50.804;12.866;2023-02-19T06:36:01;97484.38;;;7.13;100.00
49194;BME280;35029;50.804;12.866;2023-02-19T06:38:28;97517.41;;;7.23;100.00
49194;BME280;35029;50.804;12.866;2023-02-19T06:40:54;97486.03;;;7.14;100.00
49194;BME280;35029;50.804;12.866;2023-02-19T06:43:20;97483.31;;;7.22;100.00
49194;BME280;35029;50.804;12.866;2023-02-19T06:45:45;97467.84;;;7.04;100.00
49194;BME280;35029;50.804;12.866;2023-02-19T06:48:11;97467.84;;;7.04;100.00
49194;BME280;35029;50.804;12.866;2023-02-19T06:50:37;97471.47;;;7.03;100.00
49194;BME280;35029;50.804;12.866;2023-02-19T06:53:02;97473.22;;;7.10;100.00
49194;BME280;35029;50.804;12.866;2023-02-19T06:55:28;97472.56;;;7.08;100.00
49194;BME280;35029;50.804;12.866;2023-02-19T06:57:53;97496.09;;;7.10;100.00
49194;BME280;35029;50.804;12.866;2023-02-19T07:00:19;97472.47;;;7.02;100.00
49194;BME280;35029;50.804;12.866;2023-02-19T07:02:45;97500.56;;;7.09;100.00
49194;BME280;35029;50.804;12.866;2023-02-19T07:05:11;97487.47;;;7.01;100.00
49194;BME280;35029;50.804;12.866;2023-02-19T07:07:37;97500.47;;;7.03;100.00
49194;BME280;35029;50.804;12.866;2023-02-19T07:10:02;97499.47;;;7.04;100.00
49194;BME280;35029;50.804;12.866;2023-02-19T07:12:28;97491.72;;;6.87;100.00
49194;BME280;35029;50.804;12.866;2023-02-19T07:14:54;97509.59;;;6.92;100.00
49194;BME280;35029;50.804;12.866;2023-02-19T07:17:19;97503.25;;;6.86;100.00
49194;BME280;35029;50.804;12.866;2023-02-19T07:19:45;97517.69;;;6.90;100.00
49194;BME280;35029;50.804;12.866;2023-02-19T07:22:10;97501.28;;;6.80;100.00
49194;BME280;35029;50.804;12.866;2023-02-19T07:24:36;97508.22;;;6.81;100.00
49194;BME280;35029;50.804;12.866;2023-02-19T07:27:02;97503.13;;;6.80;100.00
49194;BME280;35029;50.804;12.866;2023-02-19T07:29:27;97512.13;;;6.85;100.00
49194;BME280;35029;50.804;12.866;2023-02-19T07:31:53;97532.78;;;6.97;100.00
49194;BME280;35029;50.804;12.866;2023-02-19T07:34:18;97518.16;;;6.94;100.00
49194;BME280;35029;50.804;12.866;2023-02-19T07:36:45;97525.88;;;6.96;100.00
49194;BME280;35029;50.804;12.866;2023-02-19T07:39:12;97532.44;;;7.00;100.00
49194;BME280;35029;50.804;12.866;2023-02-19T07:41:40;97539.50;;;6.99;100.00
49194;BME280;35029;50.804;12.866;2023-02-19T07:44:06;97543.00;;;7.00;100.00
49194;BME280;35029;50.804;12.866;2023-02-19T07:46:31;97535.47;;;6.88;100.00
49194;BME280;35029;50.804;12.866;2023-02-19T07:48:58;97545.63;;;7.00;100.00
49194;BME280;35029;50.804;12.866;2023-02-19T07:51:24;97535.41;;;6.82;100.00
49194;BME280;35029;50.804;12.866;2023-02-19T07:53:49;97556.84;;;6.93;100.00
49194;BME280;35029;50.804;12.866;2023-02-19T07:56:16;97567.69;;;6.99;100.00
49194;BME280;35029;50.804;12.866;2023-02-19T07:58:41;97543.22;;;6.90;100.00
49194;BME280;35029;50.804;12.866;2023-02-19T08:03:34;97548.09;;;6.78;100.00
49194;BME280;35029;50.804;12.866;2023-02-19T08:05:59;97553.66;;;6.83;100.00
49194;BME280;35029;50.804;12.866;2023-02-19T08:08:25;97554.09;;;6.87;100.00
49194;BME280;35029;50.804;12.866;2023-02-19T08:10:50;97578.34;;;6.82;100.00
49194;BME280;35029;50.804;12.866;2023-02-19T08:13:34;97574.56;;;6.85;100.00
49194;BME280;35029;50.804;12.866;2023-02-19T08:18:30;97572.28;;;6.82;100.00
49194;BME280;35029;50.804;12.866;2023-02-19T08:20:57;97586.88;;;6.84;100.00
49194;BME280;35029;50.804;12.866;2023-02-19T08:23:23;97563.03;;;6.63;100.00
49194;BME280;35029;50.804;12.866;2023-02-19T08:25:50;97565.31;;;6.66;100.00
49194;BME280;35029;50.804;12.866;2023-02-19T08:28:17;97581.72;;;6.68;100.00
49194;BME280;35029;50.804;12.866;2023-02-19T08:30:45;97602.88;;;6.83;100.00
49194;BME280;35029;50.804;12.866;2023-02-19T08:33:13;97590.75;;;6.73;100.00
49194;BME280;35029;50.804;12.866;2023-02-19T08:35:38;97593.06;;;6.76;100.00
49194;BME280;35029;50.804;12.866;2023-02-19T08:38:05;97608.81;;;6.85;100.00
49194;BME280;35029;50.804;12.866;2023-02-19T08:40:31;97605.69;;;6.81;100.00
49194;BME280;35029;50.804;12.866;2023-02-19T08:43:06;97603.41;;;6.78;100.00
49194;BME280;35029;50.804;12.866;2023-02-19T08:45:32;97601.47;;;6.72;100.00
49194;BME280;35029;50.804;12.866;2023-02-19T08:47:58;97632.13;;;6.96;100.00
49194;BME280;35029;50.804;12.866;2023-02-19T08:50:25;97642.16;;;6.92;100.00
49194;BME280;35029;50.804;12.866;2023-02-19T08:52:51;97621.25;;;6.68;100.00
49194;BME280;35029;50.804;12.866;2023-02-19T08:55:17;97639.47;;;6.77;100.00
49194;BME280;35029;50.804;12.866;2023-02-19T08:57:43;97670.34;;;6.92;100.00
49194;BME280;35029;50.804;12.866;2023-02-19T09:00:09;97695.59;;;6.86;100.00
49194;BME280;35029;50.804;12.866;2023-02-19T09:02:35;97719.34;;;6.78;100.00
49194;BME280;35029;50.804;12.866;2023-02-19T09:05:01;97727.00;;;6.56;100.00
49194;BME280;35029;50.804;12.866;2023-02-19T09:07:27;97718.81;;;6.35;100.00
49194;BME280;35029;50.804;12.866;2023-02-19T09:09:53;97717.91;;;6.11;100.00
49194;BME280;35029;50.804;12.866;2023-02-19T09:12:19;97721.69;;;6.08;100.00
49194;BME280;35029;50.804;12.866;2023-02-19T09:14:45;97737.47;;;6.08;100.00
49194;BME280;35029;50.804;12.866;2023-02-19T09:17:11;97743.56;;;6.01;100.00
49194;BME280;35029;50.804;12.866;2023-02-19T09:19:37;97772.03;;;6.05;100.00
49194;BME280;35029;50.804;12.866;2023-02-19T09:22:03;97772.00;;;5.97;100.00
49194;BME280;35029;50.804;12.866;2023-02-19T09:24:30;97765.25;;;5.95;100.00
49194;BME280;35029;50.804;12.866;2023-02-19T09:26:56;97766.56;;;5.90;100.00
49194;BME280;35029;50.804;12.866;2023-02-19T09:29:24;97784.81;;;5.84;100.00
49194;BME280;35029;50.804;12.866;2023-02-19T09:31:50;97776.78;;;5.77;100.00
49194;BME280;35029;50.804;12.866;2023-02-19T09:34:16;97771.66;;;5.67;100.00
49194;BME280;35029;50.804;12.866;2023-02-19T09:36:41;97797.97;;;5.75;100.00
49194;BME280;35029;50.804;12.866;2023-02-19T09:39:08;97782.31;;;5.57;100.00
49194;BME280;35029;50.804;12.866;2023-02-19T09:41:42;97793.50;;;5.59;100.00
49194;BME280;35029;50.804;12.866;2023-02-19T09:44:13;97809.63;;;5.56;100.00
49194;BME280;35029;50.804;12.866;2023-02-19T09:46:43;97833.59;;;5.53;100.00
49194;BME280;35029;50.804;12.866;2023-02-19T09:49:33;97830.94;;;5.45;100.00
49194;BME280;35029;50.804;12.866;2023-02-19T09:52:22;97838.97;;;5.35;100.00
49194;BME280;35029;50.804;12.866;2023-02-19T09:54:51;97827.75;;;5.17;100.00
49194;BME280;35029;50.804;12.866;2023-02-19T09:57:23;97841.22;;;5.22;100.00
49194;BME280;35029;50.804;12.866;2023-02-19T09:59:52;97839.28;;;5.24;100.00
49194;BME280;35029;50.804;12.866;2023-02-19T10:02:23;97839.84;;;5.10;100.00
49194;BME280;35029;50.804;12.866;2023-02-19T10:04:50;97878.81;;;5.14;100.00
49194;BME280;35029;50.804;12.866;2023-02-19T10:07:19;97878.47;;;5.09;100.00
49194;BME280;35029;50.804;12.866;2023-02-19T10:10:00;97882.38;;;5.05;100.00
49194;BME280;35029;50.804;12.866;2023-02-19T10:12:30;97867.16;;;4.82;100.00
49194;BME280;35029;50.804;12.866;2023-02-19T10:15:04;97919.38;;;4.85;100.00
49194;BME280;35029;50.804;12.866;2023-02-19T10:17:33;97905.84;;;4.72;100.00
49194;BME280;35029;50.804;12.866;2023-02-19T10:20:00;97922.25;;;4.74;100.00
49194;BME280;35029;50.804;12.866;2023-02-19T10:22:31;97911.53;;;4.67;100.00
49194;BME280;35029;50.804;12.866;2023-02-19T10:24:59;97897.97;;;4.54;100.00
49194;BME280;35029;50.804;12.866;2023-02-19T10:27:33;97930.38;;;4.63;100.00
49194;BME280;35029;50.804;12.866;2023-02-19T10:30:00;97944.09;;;4.56;100.00
49194;BME280;35029;50.804;12.866;2023-02-19T10:32:26;97946.88;;;4.55;100.00
49194;BME280;35029;50.804;12.866;2023-02-19T10:37:31;97946.59;;;4.40;100.00
49194;BME280;35029;50.804;12.866;2023-02-19T10:39:57;97961.00;;;4.36;100.00
49194;BME280;35029;50.804;12.866;2023-02-19T10:42:23;97972.19;;;4.38;100.00
49194;BME280;35029;50.804;12.866;2023-02-19T10:45:00;97976.81;;;4.44;100.00
49194;BME280;35029;50.804;12.866;2023-02-19T10:47:29;97978.31;;;4.47;100.00
49194;BME280;35029;50.804;12.866;2023-02-19T10:49:58;97985.88;;;4.50;100.00
49194;BME280;35029;50.804;12.866;2023-02-19T10:52:31;97994.97;;;4.37;100.00
49194;BME280;35029;50.804;12.866;2023-02-19T10:57:45;98007.75;;;4.32;100.00
49194;BME280;35029;50.804;12.866;2023-02-19T11:02:39;98018.81;;;4.44;100.00
49194;BME280;35029;50.804;12.866;2023-02-19T11:05:19;98017.41;;;4.50;100.00
49194;BME280;35029;50.804;12.866;2023-02-19T11:07:47;98015.53;;;4.42;100.00
49194;BME280;35029;50.804;12.866;2023-02-19T11:10:29;98023.66;;;4.49;100.00
49194;BME280;35029;50.804;12.866;2023-02-19T11:13:00;98025.81;;;4.53;100.00
49194;BME280;35029;50.804;12.866;2023-02-19T11:15:29;98021.00;;;4.67;100.00
49194;BME280;35029;50.804;12.866;2023-02-19T11:20:55;98014.84;;;4.40;100.00
49194;BME280;35029;50.804;12.866;2023-02-19T11:23:26;98041.09;;;4.58;100.00
49194;BME280;35029;50.804;12.866;2023-02-19T11:25:54;98037.31;;;4.70;100.00
49194;BME280;35029;50.804;12.866;2023-02-19T11:28:38;98041.88;;;4.68;100.00
49194;BME280;35029;50.804;12.866;2023-02-19T11:33:59;98043.28;;;4.45;100.00
49194;BME280;35029;50.804;12.866;2023-02-19T11:36:37;98010.41;;;4.22;100.00
49194;BME280;35029;50.804;12.866;2023-02-19T11:52:46;98071.22;;;4.64;100.00
49194;BME280;35029;50.804;12.866;2023-02-19T12:15:06;98087.19;;;4.88;100.00
49194;BME280;35029;50.804;12.866;2023-02-19T12:21:14;98098.38;;;4.72;100.00
49194;BME280;35029;50.804;12.866;2023-02-19T12:26:26;98105.19;;;4.83;100.00
49194;BME280;35029;50.804;12.866;2023-02-19T12:29:08;98103.03;;;4.79;100.00
49194;BME280;35029;50.804;12.866;2023-02-19T12:37:53;98108.78;;;5.00;100.00
49194;BME280;35029;50.804;12.866;2023-02-19T12:43:13;98125.97;;;4.95;100.00
49194;BME280;35029;50.804;12.866;2023-02-19T12:46:14;98116.66;;;4.82;100.00
49194;BME280;35029;50.804;12.866;2023-02-19T12:48:43;98123.88;;;4.98;100.00
49194;BME280;35029;50.804;12.866;2023-02-19T12:54:24;98131.09;;;4.96;100.00
49194;BME280;35029;50.804;12.866;2023-02-19T12:56:59;98105.66;;;4.79;100.00
49194;BME280;35029;50.804;12.866;2023-02-19T12:59:32;98137.91;;;4.89;100.00
49194;BME280;35029;50.804;12.866;2023-02-19T13:02:05;98132.16;;;4.85;100.00
49194;BME280;35029;50.804;12.866;2023-02-19T13:07:38;98133.34;;;4.91;100.00
49194;BME280;35029;50.804;12.866;2023-02-19T13:12:56;98142.28;;;4.98;100.00
49194;BME280;35029;50.804;12.866;2023-02-19T13:15:34;98126.13;;;4.93;100.00
49194;BME280;35029;50.804;12.866;2023-02-19T13:18:02;98146.66;;;5.07;100.00
49194;BME280;35029;50.804;12.866;2023-02-19T13:20:35;98139.97;;;4.95;100.00
49194;BME280;35029;50.804;12.866;2023-02-19T13:23:27;98143.25;;;4.79;100.00
49194;BME280;35029;50.804;12.866;2023-02-19T13:26:37;98142.13;;;4.82;100.00
49194;BME280;35029;50.804;12.866;2023-02-19T13:37:20;98147.63;;;4.88;100.00
49194;BME280;35029;50.804;12.866;2023-02-19T13:39:51;98164.56;;;4.94;100.00
49194;BME280;35029;50.804;12.866;2023-02-19T13:42:24;98155.88;;;4.94;100.00
49194;BME280;35029;50.804;12.866;2023-02-19T13:44:50;98152.94;;;4.79;100.00
49194;BME280;35029;50.804;12.866;2023-02-19T13:47:47;98165.84;;;4.90;100.00
49194;BME280;35029;50.804;12.866;2023-02-19T13:50:32;98153.75;;;4.79;100.00
49194;BME280;35029;50.804;12.866;2023-02-19T13:52:59;98165.69;;;4.91;100.00
49194;BME280;35029;50.804;12.866;2023-02-19T14:00:58;98162.91;;;4.75;100.00
49194;BME280;35029;50.804;12.866;2023-02-19T14:06:06;98167.66;;;4.89;100.00
49194;BME280;35029;50.804;12.866;2023-02-19T14:08:53;98174.69;;;4.89;100.00
49194;BME280;35029;50.804;12.866;2023-02-19T14:14:33;98187.41;;;4.94;100.00
49194;BME280;35029;50.804;12.866;2023-02-19T14:17:22;98185.34;;;4.87;100.00
49194;BME280;35029;50.804;12.866;2023-02-19T14:31:07;98198.31;;;5.17;100.00
49194;BME280;35029;50.804;12.866;2023-02-19T14:33:35;98196.81;;;5.14;100.00
49194;BME280;35029;50.804;12.866;2023-02-19T14:36:33;98195.97;;;5.14;100.00
49194;BME280;35029;50.804;12.866;2023-02-19T14:39:02;98197.38;;;5.08;100.00
49194;BME280;35029;50.804;12.866;2023-02-19T14:41:32;98200.00;;;5.08;99.74
49194;BME280;35029;50.804;12.866;2023-02-19T14:43:59;98197.22;;;5.10;99.13
49194;BME280;35029;50.804;12.866;2023-02-19T14:46:40;98200.69;;;5.10;99.76
49194;BME280;35029;50.804;12.866;2023-02-19T14:49:23;98197.84;;;5.03;98.87
49194;BME280;35029;50.804;12.866;2023-02-19T14:51:54;98179.44;;;4.85;99.37
49194;BME280;35029;50.804;12.866;2023-02-19T14:54:37;98201.50;;;4.93;99.31
49194;BME280;35029;50.804;12.866;2023-02-19T14:57:06;98198.88;;;4.93;99.14
49194;BME280;35029;50.804;12.866;2023-02-19T14:59:36;98207.16;;;4.98;95.55
49194;BME280;35029;50.804;12.866;2023-02-19T15:02:13;98216.06;;;4.87;95.77
49194;BME280;35029;50.804;12.866;2023-02-19T15:04:39;98227.03;;;5.00;94.85
49194;BME280;35029;50.804;12.866;2023-02-19T15:07:06;98233.84;;;4.93;94.11
49194;BME280;35029;50.804;12.866;2023-02-19T15:09:38;98224.28;;;4.74;94.62
49194;BME280;35029;50.804;12.866;2023-02-19T15:12:06;98215.03;;;4.70;94.94
49194;BME280;35029;50.804;12.866;2023-02-19T15:14:32;98228.22;;;4.60;96.19
49194;BME280;35029;50.804;12.866;2023-02-19T15:17:02;98232.84;;;4.76;97.21
49194;BME280;35029;50.804;12.866;2023-02-19T15:19:32;98214.88;;;4.71;94.92
49194;BME280;35029;50.804;12.866;2023-02-19T15:22:04;98226.38;;;4.70;97.68
49194;BME280;35029;50.804;12.866;2023-02-19T15:24:30;98225.34;;;4.81;98.46